sensor_id;sensor_type;location;lat;lon;timestamp;temperature;humidity
59703;DHT22;45570;48.782;8.332;2023-03-08T08:44:59;4.70;99.90
59703;DHT22;45570;48.782;8.332;2023-03-08T08:47:28;4.70;99.90
59703;DHT22;45570;48.782;8.332;2023-03-08T08:49:56;4.80;99.90
59703;DHT22;45570;48.782;8.332;2023-03-08T08:52:25;4.70;99.90
59703;DHT22;45570;48.782;8.332;2023-03-08T08:57:31;5.10;99.90
59703;DHT22;45570;48.782;8.332;2023-03-08T09:00:00;5.20;99.90
59703;DHT22;45570;48.782;8.332;2023-03-08T09:02:28;5.40;99.90
59703;DHT22;45570;48.782;8.332;2023-03-08T09:04:57;5.50;99.90
59703;DHT22;45570;48.782;8.332;2023-03-08T09:07:26;5.80;99.90
59703;DHT22;45570;48.782;8.332;2023-03-08T09:09:55;6.00;99.90
59703;DHT22;45570;48.782;8.332;2023-03-08T09:12:24;6.40;99.90
59703;DHT22;45570;48.782;8.332;2023-03-08T09:14:54;6.60;99.90
59703;DHT22;45570;48.782;8.332;2023-03-08T09:17:22;6.80;99.90
59703;DHT22;45570;48.782;8.332;2023-03-08T09:19:51;7.00;99.90
59703;DHT22;45570;48.782;8.332;2023-03-08T09:22:20;7.20;99.90
59703;DHT22;45570;48.782;8.332;2023-03-08T09:24:48;7.40;99.90
59703;DHT22;45570;48.782;8.332;2023-03-08T09:27:17;7.50;99.90
59703;DHT22;45570;48.782;8.332;2023-03-08T09:29:46;7.60;99.90
59703;DHT22;45570;48.782;8.332;2023-03-08T09:32:16;7.60;99.90
59703;DHT22;45570;48.782;8.332;2023-03-08T09:34:44;7.70;99.90
59703;DHT22;45570;48.782;8.332;2023-03-08T09:37:14;7.90;99.90
59703;DHT22;45570;48.782;8.332;2023-03-08T09:39:42;7.90;99.90
59703;DHT22;45570;48.782;8.332;2023-03-08T09:42:17;8.00;99.90
59703;DHT22;45570;48.782;8.332;2023-03-08T09:45:11;8.10;99.90
59703;DHT22;45570;48.782;8.332;2023-03-08T09:47:45;8.10;99.90
59703;DHT22;45570;48.782;8.332;2023-03-08T09:50:32;8.20;99.90
59703;DHT22;45570;48.782;8.332;2023-03-08T09:53:08;8.10;99.90
59703;DHT22;45570;48.782;8.332;2023-03-08T09:55:44;8.10;99.90
59703;DHT22;45570;48.782;8.332;2023-03-08T09:58:21;8.30;99.90
59703;DHT22;45570;48.782;8.332;2023-03-08T10:00:53;8.30;99.90
59703;DHT22;45570;48.782;8.332;2023-03-08T10:04:00;8.50;99.90
59703;DHT22;45570;48.782;8.332;2023-03-08T10:06:38;8.60;99.90
59703;DHT22;45570;48.782;8.332;2023-03-08T10:09:20;8.70;99.90
59703;DHT22;45570;48.782;8.332;2023-03-08T10:11:55;8.70;99.90
59703;DHT22;45570;48.782;8.332;2023-03-08T10:14:31;8.80;99.90
59703;DHT22;45570;48.782;8.332;2023-03-08T10:17:04;8.80;99.90
59703;DHT22;45570;48.782;8.332;2023-03-08T10:19:40;8.80;99.90
59703;DHT22;45570;48.782;8.332;2023-03-08T10:22:15;8.90;99.90
59703;DHT22;45570;48.782;8.332;2023-03-08T10:24:51;9.00;99.90
59703;DHT22;45570;48.782;8.332;2023-03-08T10:27:24;9.10;99.90
59703;DHT22;45570;48.782;8.332;2023-03-08T10:29:54;9.10;99.90
59703;DHT22;45570;48.782;8.332;2023-03-08T10:32:24;9.20;99.90
59703;DHT22;45570;48.782;8.332;2023-03-08T10:35:01;9.40;99.90
59703;DHT22;45570;48.782;8.332;2023-03-08T10:37:31;9.50;99.90
59703;DHT22;45570;48.782;8.332;2023-03-08T10:40:05;9.50;99.90
59703;DHT22;45570;48.782;8.332;2023-03-08T10:42:34;9.60;99.90
59703;DHT22;45570;48.782;8.332;2023-03-08T10:45:13;9.60;99.90
59703;DHT22;45570;48.782;8.332;2023-03-08T10:47:54;9.60;99.90
59703;DHT22;45570;48.782;8.332;2023-03-08T10:50:25;9.70;99.90
59703;DHT22;45570;48.782;8.332;2023-03-08T10:52:54;9.60;99.90
59703;DHT22;45570;48.782;8.332;2023-03-08T10:55:26;9.50;99.90
59703;DHT22;45570;48.782;8.332;2023-03-08T10:57:57;9.50;99.90
59703;DHT22;45570;48.782;8.332;2023-03-08T11:00:33;9.60;99.90
59703;DHT22;45570;48.782;8.332;2023-03-08T11:03:13;9.60;99.90
59703;DHT22;45570;48.782;8.332;2023-03-08T11:05:52;9.70;99.90
59703;DHT22;45570;48.782;8.332;2023-03-08T11:08:24;9.80;99.90
59703;DHT22;45570;48.782;8.332;2023-03-08T11:11:13;9.90;99.90
59703;DHT22;45570;48.782;8.332;2023-03-08T11:13:44;10.00;99.90
59703;DHT22;45570;48.782;8.332;2023-03-08T11:16:52;10.10;99.90
59703;DHT22;45570;48.782;8.332;2023-03-08T11:19:31;10.10;99.90
59703;DHT22;45570;48.782;8.332;2023-03-08T11:22:12;10.10;99.90
59703;DHT22;45570;48.782;8.332;2023-03-08T11:24:52;10.30;99.90
59703;DHT22;45570;48.782;8.332;2023-03-08T11:27:36;10.30;99.90
59703;DHT22;45570;48.782;8.332;2023-03-08T11:30:18;10.40;99.90
59703;DHT22;45570;48.782;8.332;2023-03-08T11:33:00;10.50;99.90
59703;DHT22;45570;48.782;8.332;2023-03-08T11:35:35;10.50;99.90
59703;DHT22;45570;48.782;8.332;2023-03-08T11:38:14;10.60;99.90
59703;DHT22;45570;48.782;8.332;2023-03-08T11:40:54;10.60;99.90
59703;DHT22;45570;48.782;8.332;2023-03-08T11:43:39;10.60;99.90
59703;DHT22;45570;48.782;8.332;2023-03-08T11:46:16;10.70;99.90
59703;DHT22;45570;48.782;8.332;2023-03-08T11:48:55;10.80;99.90
59703;DHT22;45570;48.782;8.332;2023-03-08T11:51:29;10.80;99.90
59703;DHT22;45570;48.782;8.332;2023-03-08T11:54:11;10.80;99.90
59703;DHT22;45570;48.782;8.332;2023-03-08T11:56:45;10.90;99.90
59703;DHT22;45570;48.782;8.332;2023-03-08T11:59:29;11.00;99.90
59703;DHT22;45570;48.782;8.332;2023-03-08T12:02:01;10.90;99.90
59703;DHT22;45570;48.782;8.332;2023-03-08T12:04:36;11.00;99.90
59703;DHT22;45570;48.782;8.332;2023-03-08T12:07:11;11.10;99.90
59703;DHT22;45570;48.782;8.332;2023-03-08T12:09:51;11.10;99.90
59703;DHT22;45570;48.782;8.332;2023-03-08T12:12:27;11.10;99.90
59703;DHT22;45570;48.782;8.332;2023-03-08T12:15:01;11.20;99.90
59703;DHT22;45570;48.782;8.332;2023-03-08T12:17:35;11.20;99.90
59703;DHT22;45570;48.782;8.332;2023-03-08T12:20:12;11.30;99.90
59703;DHT22;45570;48.782;8.332;2023-03-08T12:22:44;11.30;99.90
59703;DHT22;45570;48.782;8.332;2023-03-08T12:25:27;11.40;99.90
59703;DHT22;45570;48.782;8.332;2023-03-08T12:27:59;11.40;99.90
59703;DHT22;45570;48.782;8.332;2023-03-08T12:30:39;11.50;99.90
59703;DHT22;45570;48.782;8.332;2023-03-08T12:33:13;11.60;99.90
59703;DHT22;45570;48.782;8.332;2023-03-08T12:35:50;11.60;99.90
59703;DHT22;45570;48.782;8.332;2023-03-08T12:38:34;11.70;99.90
59703;DHT22;45570;48.782;8.332;2023-03-08T12:41:20;11.70;99.90
59703;DHT22;45570;48.782;8.332;2023-03-08T12:43:57;11.80;99.90
59703;DHT22;45570;48.782;8.332;2023-03-08T12:56:00;11.90;99.90
59703;DHT22;45570;48.782;8.332;2023-03-08T13:09:02;12.00;99.90
59703;DHT22;45570;48.782;8.332;2023-03-08T13:11:37;12.00;99.90
59703;DHT22;45570;48.782;8.332;2023-03-08T13:14:23;12.10;99.90
59703;DHT22;45570;48.782;8.332;2023-03-08T13:16:52;12.10;99.90
59703;DHT22;45570;48.782;8.332;2023-03-08T13:43:25;12.40;99.90
59703;DHT22;45570;48.782;8.332;2023-03-08T13:45:55;12.40;99.90
59703;DHT22;45570;48.782;8.332;2023-03-08T13:48:27;12.40;99.90
